Flight Track Log - Related Links

Times and Time Zones

All times are in EDT time to prevent confusion due to time zone crossing. See the GJS3707 flight status page for this flight to view local times or setup timezone preferences in your user account.

Time Position Orientation Groundspeed Altitude Reporting Facility
EDT Latitude Longitude Course Direction KTS MPH feet Rate Location/Type
Wed 03:36:17 PM 43.6186 -116.3647 304° West 238 274 6,400  Level Salt Lake Center
Wed 03:37:00 PM 43.6590 -115.5503 78° East  Level FlightAware Approximate
Wed 03:37:19 PM 43.6706 -116.2950 44° Northeast 287 330 8,600  Level Salt Lake Center
Wed 03:38:00 PM 43.6777 -115.3793 83° East  Level FlightAware Approximate
Wed 03:38:21 PM 43.6825 -116.1828 82° East 309 356 10,700  Level Salt Lake Center
Wed 03:39:00 PM 43.7024 -115.2120 81° East  Level FlightAware Approximate
Wed 03:39:22 PM 43.7008 -116.0364 80° East 347 399 12,500  Level Salt Lake Center
Wed 03:40:00 PM 43.7215 -115.0408 81° East  Level FlightAware Approximate
Wed 03:40:24 PM 43.7178 -115.8964 80° East 383 441 14,200  Level Salt Lake Center
Wed 03:41:26 PM 43.7372 -115.7292 81° East 395 455 16,800 1,935 Climbing Salt Lake Center
Wed 03:42:28 PM 43.7536 -115.5814 81° East 403 464 18,200 1,790 Climbing Salt Lake Center
Wed 03:43:30 PM 43.7750 -115.3994 81° East 425 489 20,500 1,902 Climbing Salt Lake Center
Wed 03:44:31 PM 43.7922 -115.2433 81° East 430 495 22,100 1,561 Climbing Salt Lake Center
Wed 03:45:33 PM 43.8128 -115.0572 81° East 439 505 23,700 1,258 Climbing Salt Lake Center
Wed 03:46:35 PM 43.8317 -114.8914 81° East 455 524 24,700 1,268 Climbing Salt Lake Center
Wed 03:47:36 PM 43.8533 -114.6950 81° East 466 536 26,300 1,415 Climbing Salt Lake Center
Wed 03:48:38 PM 43.8700 -114.5261 82° East 465 535 27,600 1,306 Climbing Salt Lake Center
Wed 03:49:40 PM 43.8886 -114.3578 81° East 461 531 29,000 1,161 Climbing Salt Lake Center
Wed 03:50:42 PM 43.9078 -114.1597 82° East 465 535 30,000 878 Climbing Salt Lake Center
Wed 03:51:43 PM 43.9206 -113.9872 84° East 469 540 30,800 829 Climbing Salt Lake Center
Wed 03:52:45 PM 43.9464 -113.7769 80° East 480 552 31,700 581 Climbing Salt Lake Center
Wed 03:53:47 PM 43.9642 -113.5950 82° East 498 573 32,000 387 Climbing Salt Lake Center
Wed 03:54:49 PM 43.9800 -113.4086 83° East 508 585 32,500 634 Climbing Salt Lake Center
Wed 03:55:50 PM 44.0011 -113.1858 82° East 521 600 33,300 732 Climbing Salt Lake Center
Wed 03:56:52 PM 44.0186 -112.9942 83° East 523 602 34,000 774 Climbing Salt Lake Center
Wed 03:57:54 PM 44.0394 -112.7719 82° East 521 600 34,900 732 Climbing Salt Lake Center
Wed 03:58:55 PM 44.0567 -112.5797 83° East 525 604 35,500 683 Climbing Salt Lake Center
Wed 03:59:57 PM 44.0747 -112.3547 84° East 526 605 36,300 629 Climbing Salt Lake Center
Wed 04:00:59 PM 44.0903 -112.1628 83° East 526 605 36,800 537 Climbing Salt Lake Center
Wed 04:02:00 PM 44.0900 -111.9400 90° East 518 596 37,400 488 Climbing Salt Lake Center
Wed 04:03:02 PM 44.0914 -111.7508 89° East 516 594 37,800 484 Climbing Salt Lake Center
Wed 04:04:04 PM 44.0928 -111.5600 89° East 520 598 38,400 585 Climbing Salt Lake Center
Wed 04:05:05 PM 44.0931 -111.3419 90° East 512 589 39,000 293 Climbing Salt Lake Center
Wed 04:06:07 PM 44.0942 -111.1575 89° East 505 581 39,000  Level Salt Lake Center
Wed 04:07:09 PM 44.0933 -110.9431 90° East 502 578 39,000  Level Salt Lake Center
Wed 04:08:11 PM 44.0936 -110.7553 90° East 508 585 39,000  Level Salt Lake Center
Wed 04:09:12 PM 44.0933 -110.5339 90° East 514 592 39,000  Level Salt Lake Center
Wed 04:10:14 PM 44.0925 -110.3433 90° East 518 596 39,000  Level Salt Lake Center
Wed 04:11:16 PM 44.0911 -110.1214 90° East 516 594 39,000  Level Salt Lake Center
Wed 04:12:17 PM 44.0886 -109.9311 91° East 517 595 39,000  Level Salt Lake Center
Wed 04:13:19 PM 44.0864 -109.7072 91° East 519 597 39,000  Level Salt Lake Center
Wed 04:14:21 PM 44.0831 -109.5156 91° East 520 598 39,000  Level Salt Lake Center
Wed 04:15:22 PM 44.0803 -109.3161 91° East 516 594 39,000  Level Salt Lake Center
Wed 04:16:24 PM 44.0758 -109.0939 92° East 517 595 39,000  Level Salt Lake Center
Wed 04:17:26 PM 44.0725 -108.9017 91° East 520 598 39,000  Level Salt Lake Center
Wed 04:18:27 PM 44.0683 -108.7108 92° East 520 598 39,000  Level Salt Lake Center
Wed 04:19:29 PM 44.0642 -108.4875 91° East 519 597 39,000  Level Salt Lake Center
Wed 04:20:31 PM 44.0597 -108.2967 92° East 519 597 39,000  Level Salt Lake Center
Wed 04:21:33 PM 44.0536 -108.0736 92° East 519 597 39,000  Level Salt Lake Center
Wed 04:22:34 PM 44.0486 -107.8811 92° East 522 601 39,000  Level Salt Lake Center
Wed 04:23:36 PM 44.0414 -107.6567 92° East 523 602 39,000  Level Salt Lake Center
Wed 04:24:38 PM 44.0342 -107.4664 93° East 521 600 39,000  Level Salt Lake Center
Wed 04:25:39 PM 44.0269 -107.2422 92° East 521 600 39,000  Level Salt Lake Center
Wed 04:26:25 PM 44.0239 -107.1125 92° East 524 603 39,000  Level Denver Center
Wed 04:27:27 PM 44.0158 -106.8864 93° East 526 605 39,000  Level Denver Center
Wed 04:27:43 PM 44.0128 -106.8239 94° East 522 601 39,000  Level Salt Lake Center
Wed 04:28:44 PM 44.0069 -106.6267 92° East 531 611 39,000  Level Salt Lake Center
Wed 04:29:30 PM 44.0019 -106.4775 93° East 524 603 39,000  Level Denver Center
Wed 04:30:32 PM 44.0014 -106.2519 90° East 522 601 39,000  Level Denver Center
Wed 04:30:48 PM 44.0017 -106.2097 89° East 522 601 39,000  Level Salt Lake Center
Wed 04:31:34 PM 44.0047 -106.0564 88° East 528 608 39,000  Level Denver Center
Wed 04:32:36 PM 44.0042 -105.8647 90° East 523 602 39,000  Level Denver Center
Wed 04:33:37 PM 44.0042 -105.6428 90° East 517 595 39,000  Level Denver Center
Wed 04:34:39 PM 44.0039 -105.4519 90° East 515 593 39,000  Level Denver Center
Wed 04:35:41 PM 44.0044 -105.2278 90° East 518 596 39,000  Level Denver Center
Wed 04:36:43 PM 44.0031 -105.0392 91° East 513 590 39,000  Level Denver Center
Wed 04:37:44 PM 44.0017 -104.8178 90° East 513 590 39,000  Level Denver Center
Wed 04:38:46 PM 44.0006 -104.6267 90° East 514 592 39,000  Level Denver Center
Wed 04:39:48 PM 43.9989 -104.4392 91° East 510 587 39,000  Level Denver Center
Wed 04:40:50 PM 43.9958 -104.2181 91° East 510 587 39,000  Level Denver Center
Wed 04:41:51 PM 43.9944 -104.0308 91° East 510 587 39,000  Level Denver Center
Wed 04:42:53 PM 43.9903 -103.8125 91° East 505 581 39,000  Level Denver Center
Wed 04:43:55 PM 43.9878 -103.6242 91° East 507 583 39,000  Level Denver Center
Wed 04:44:57 PM 43.9836 -103.4067 91° East 505 581 39,000  Level Denver Center
Wed 04:45:59 PM 43.9822 -103.2233 91° East 500 575 39,000  Level Denver Center
Wed 04:47:01 PM 43.9772 -103.0356 92° East 504 580 39,000  Level Denver Center
Wed 04:48:03 PM 43.9722 -102.8100 92° East 507 583 39,000  Level Denver Center
Wed 04:49:05 PM 43.9644 -102.6153 93° East 506 582 39,000  Level Denver Center
Wed 04:50:06 PM 43.9581 -102.4208 93° East 506 582 39,000  Level Denver Center
Wed 04:51:08 PM 43.9514 -102.2264 93° East 506 582 39,000  Level Denver Center
Wed 04:52:10 PM 43.9442 -102.0325 93° East 506 582 39,000  Level Denver Center
Wed 04:53:12 PM 43.9358 -101.8397 93° East 504 580 39,000  Level Denver Center
Wed 04:54:14 PM 43.9325 -101.6161 91° East 491 565 39,000  Level Denver Center
Wed 04:54:30 PM 43.9289 -101.5769 97° East 500 575 39,000  Level Minneapolis Center
Wed 04:55:32 PM 43.9222 -101.3875 93° East 497 572 39,000  Level Minneapolis Center
Wed 04:56:18 PM 43.9167 -101.2344 93° East 498 573 39,000  Level Denver Center
Wed 04:56:34 PM 43.9147 -101.1983 94° East 495 570 39,000  Level Minneapolis Center
Wed 04:57:20 PM 43.9089 -101.0442 93° East 498 573 39,000  Level Denver Center
Wed 04:57:36 PM 43.9072 -101.0083 94° East 495 570 39,000  Level Minneapolis Center
Wed 04:58:38 PM 43.8975 -100.7822 93° East 494 568 39,000  Level Minneapolis Center
Wed 04:59:40 PM 43.8889 -100.5942 94° East 493 567 39,000  Level Minneapolis Center
Wed 05:00:46 PM 43.8800 -100.4033 94° East 496 571 39,000  Level Minneapolis Center
Wed 05:01:49 PM 43.8706 -100.2133 94° East 497 572 39,000  Level Minneapolis Center
Wed 05:02:51 PM 43.8656 -99.9864 92° East 496 571 39,000  Level Minneapolis Center
Wed 05:03:53 PM 43.9031 -99.8047 74° East 495 570 39,000  Level Minneapolis Center
Wed 05:04:55 PM 43.9422 -99.6228 73° East 496 571 39,000  Level Minneapolis Center
Wed 05:05:57 PM 43.9828 -99.4439 72° East 491 565 39,000  Level Minneapolis Center
Wed 05:06:59 PM 44.0225 -99.2614 73° East 494 568 39,000  Level Minneapolis Center
Wed 05:08:01 PM 44.0711 -99.0414 73° East 497 572 39,000  Level Minneapolis Center
Wed 05:09:03 PM 44.1119 -98.8575 73° East 499 574 39,000  Level Minneapolis Center
Wed 05:10:05 PM 44.1525 -98.6631 74° East 498 573 39,000  Level Minneapolis Center
Wed 05:11:07 PM 44.1931 -98.4772 73° East 500 575 39,000  Level Minneapolis Center
Wed 05:12:09 PM 44.2328 -98.2928 73° East 499 574 39,000  Level Minneapolis Center
Wed 05:13:11 PM 44.2694 -98.1069 75° East 498 573 39,000  Level Minneapolis Center
Wed 05:14:14 PM 44.3083 -97.9217 74° East 499 574 39,000  Level Minneapolis Center
Wed 05:15:16 PM 44.3472 -97.7350 74° East 501 577 39,000  Level Minneapolis Center
Wed 05:16:18 PM 44.3917 -97.5131 74° East 496 571 39,000  Level Minneapolis Center
Wed 05:17:20 PM 44.4303 -97.3278 74° East 497 572 39,000  Level Minneapolis Center
Wed 05:18:22 PM 44.4672 -97.1456 74° East 489 563 39,000  Level Minneapolis Center
Wed 05:19:24 PM 44.5036 -96.9619 74° East 489 563 39,000  Level Minneapolis Center
Wed 05:20:26 PM 44.5403 -96.7797 74° East 486 559 39,000  Level Minneapolis Center
Wed 05:21:28 PM 44.5750 -96.5972 75° East 484 557 39,000  Level Minneapolis Center
Wed 05:22:30 PM 44.6186 -96.3756 74° East 487 560 39,000  Level Minneapolis Center
Wed 05:23:32 PM 44.6528 -96.1917 75° East 485 558 39,000  Level Minneapolis Center
Wed 05:24:34 PM 44.6869 -96.0092 75° East 482 555 39,000  Level Minneapolis Center
Wed 05:25:37 PM 44.7219 -95.8261 75° East 483 556 39,000  Level Minneapolis Center
Wed 05:26:39 PM 44.7553 -95.6456 75° East 477 549 39,000  Level Minneapolis Center
Wed 05:27:41 PM 44.7883 -95.4617 76° East 483 556 39,000  Level Minneapolis Center
Wed 05:28:43 PM 44.8219 -95.2783 75° East 484 557 39,000  Level Minneapolis Center
Wed 05:29:45 PM 44.8617 -95.0556 76° East 488 562 39,000  Level Minneapolis Center
Wed 05:30:47 PM 44.8947 -94.8692 76° East 490 564 39,000  Level Minneapolis Center
Wed 05:31:49 PM 44.9269 -94.6825 76° East 491 565 39,000  Level Minneapolis Center
Wed 05:32:51 PM 44.9575 -94.5094 76° East 491 565 39,000  Level Minneapolis Center
Wed 05:33:53 PM 44.9958 -94.2839 76° East 493 567 39,000  Level Minneapolis Center
Wed 05:34:55 PM 45.0278 -94.0964 76° East 492 566 39,000  Level Minneapolis Center
Wed 05:35:57 PM 45.0586 -93.9103 77° East 487 560 39,000  Level Minneapolis Center
Wed 05:36:59 PM 45.0897 -93.7242 77° East 486 559 39,000  Level Minneapolis Center
Wed 05:38:01 PM 45.1200 -93.5372 77° East 485 558 39,000  Level Minneapolis Center
Wed 05:39:04 PM 45.1456 -93.3497 79° East 483 556 39,000  Level Minneapolis Center
Wed 05:40:06 PM 45.1400 -93.1567 92° East 486 559 39,000  Level Minneapolis Center
Wed 05:41:08 PM 45.1328 -92.9258 92° East 487 560 39,000  Level Minneapolis Center
Wed 05:42:10 PM 45.1258 -92.7350 93° East 485 558 39,000  Level Minneapolis Center
Wed 05:43:12 PM 45.1208 -92.5472 92° East 481 554 39,000  Level Minneapolis Center
Wed 05:44:14 PM 45.1139 -92.3581 93° East 482 555 39,000  Level Minneapolis Center
Wed 05:45:16 PM 45.1075 -92.1725 93° East 475 547 39,000  Level Minneapolis Center
Wed 05:46:18 PM 45.1000 -91.9886 93° East 471 542 39,000  Level Minneapolis Center
Wed 05:47:20 PM 45.0931 -91.8031 93° East 473 544 39,000  Level Minneapolis Center
Wed 05:48:22 PM 45.0825 -91.5808 94° East 473 544 39,000  Level Minneapolis Center
Wed 05:49:24 PM 45.0719 -91.3964 95° East 474 545 39,000  Level Minneapolis Center
Wed 05:50:26 PM 45.0647 -91.2136 93° East 470 541 39,000  Level Minneapolis Center
Wed 05:51:28 PM 45.0561 -91.0314 94° East 468 539 39,000  Level Minneapolis Center
Wed 05:52:29 PM 45.0475 -90.8425 94° East 466 536 39,000  Level Minneapolis Center
Wed 05:53:31 PM 45.0411 -90.6631 93° East 462 532 39,000  Level Minneapolis Center
Wed 05:54:33 PM 45.0308 -90.4794 94° East 470 541 39,000  Level Minneapolis Center
Wed 05:55:35 PM 45.0197 -90.2603 94° East 469 540 39,000  Level Minneapolis Center
Wed 05:56:37 PM 45.0100 -90.0764 94° East 472 543 39,000  Level Minneapolis Center
Wed 05:57:39 PM 44.9994 -89.8919 95° East 474 545 39,000  Level Minneapolis Center
Wed 05:58:41 PM 44.9875 -89.6883 95° East 472 543 39,000  Level Minneapolis Center
Wed 05:59:44 PM 44.9764 -89.5047 95° East 472 543 39,000  Level Minneapolis Center
Wed 06:00:46 PM 44.9650 -89.3225 95° East 469 540 39,000 -387 Level Minneapolis Center
Wed 06:01:48 PM 44.9531 -89.1419 95° East 465 535 38,200 -871 Descending Minneapolis Center
Wed 06:02:50 PM 44.9414 -88.9522 95° East 481 554 37,200 -581 Descending Minneapolis Center
Wed 06:03:52 PM 44.9267 -88.7283 95° East 491 565 37,000 -484 Descending Minneapolis Center
Wed 06:04:54 PM 44.9150 -88.5353 95° East 494 568 36,200 -871 Descending Minneapolis Center
Wed 06:05:56 PM 44.9014 -88.3447 96° East 491 565 35,200 -581 Descending Minneapolis Center
Wed 06:06:58 PM 44.8883 -88.1692 96° East 485 558 35,000 -532 Descending Minneapolis Center
Wed 06:08:00 PM 44.8706 -87.9422 96° East 488 562 34,100 -919 Descending Minneapolis Center
Wed 06:09:02 PM 44.8586 -87.7486 95° East 493 567 33,100 -532 Descending Minneapolis Center
Wed 06:10:04 PM 44.8356 -87.5625 100° East 486 559 33,000 -48 Descending Minneapolis Center
Wed 06:11:06 PM 44.7636 -87.4056 123° Southeast 482 555 33,000  Level Minneapolis Center
Wed 06:12:08 PM 44.6606 -87.2942 142° Southeast 467 537 33,000 -290 Level Minneapolis Center
Wed 06:13:10 PM 44.5564 -87.1867 144° Southeast 466 536 32,400 -484 Descending Minneapolis Center
Wed 06:14:12 PM 44.4281 -87.0556 144° Southeast 477 549 32,000 -194 Descending Minneapolis Center
Wed 06:15:14 PM 44.3222 -86.9461 143° Southeast 477 549 32,000  Level Minneapolis Center
Wed 06:16:16 PM 44.2089 -86.8767 156° South 455 524 32,000  Level Minneapolis Center
Wed 06:17:18 PM 44.0839 -86.9158 193° South 427 491 32,000  Level Minneapolis Center
Wed 06:18:20 PM 44.0317 -87.0500 242° Southwest 412 474 32,000  Level Minneapolis Center
Wed 06:19:22 PM 44.0969 -87.1819 305° West 420 483 32,000  Level Minneapolis Center
Wed 06:20:24 PM 44.1775 -87.3222 309° West 429 494 32,000  Level Minneapolis Center
Wed 06:21:26 PM 44.2508 -87.4464 310° West 421 484 32,000  Level Minneapolis Center
Wed 06:22:28 PM 44.3247 -87.5728 309° West 422 486 32,000  Level Minneapolis Center
Wed 06:23:30 PM 44.4006 -87.7011 310° West 429 494 32,000  Level Minneapolis Center
Wed 06:24:32 PM 44.4786 -87.8342 309° West 427 491 32,000  Level Minneapolis Center
Wed 06:25:34 PM 44.5617 -87.9764 309° West 424 488 32,000  Level Minneapolis Center
Wed 06:26:36 PM 44.6364 -88.1031 310° West 424 488 32,000  Level Minneapolis Center
Wed 06:27:38 PM 44.7122 -88.2342 309° West 431 496 32,000  Level Minneapolis Center
Wed 06:28:40 PM 44.7994 -88.3881 309° West 431 496 32,000  Level Minneapolis Center
Wed 06:29:42 PM 44.8744 -88.5175 309° West 432 497 32,000  Level Minneapolis Center
Wed 06:30:44 PM 44.9500 -88.6500 309° West 433 498 32,000  Level Minneapolis Center
Wed 06:31:46 PM 45.0233 -88.7811 308° West 430 495 32,000  Level Minneapolis Center
Wed 06:32:48 PM 45.1086 -88.9328 309° West 427 491 32,000  Level Minneapolis Center
Wed 06:33:50 PM 45.1831 -89.0644 309° West 427 491 32,000  Level Minneapolis Center
Wed 06:34:52 PM 45.2564 -89.1986 308° West 430 495 32,000  Level Minneapolis Center
Wed 06:35:54 PM 45.3303 -89.3328 308° West 431 496 32,000  Level Minneapolis Center
Wed 06:36:56 PM 45.4050 -89.4658 309° West 430 495 32,000  Level Minneapolis Center
Wed 06:37:58 PM 45.4800 -89.6019 308° West 433 498 32,000  Level Minneapolis Center
Wed 06:39:00 PM 45.5556 -89.7386 308° West 436 502 32,000  Level Minneapolis Center
Wed 06:40:02 PM 45.6453 -89.9058 308° West 438 504 32,000  Level Minneapolis Center
Wed 06:41:04 PM 45.7208 -90.0425 308° West 437 503 32,000  Level Minneapolis Center
Wed 06:42:06 PM 45.7947 -90.1800 308° West 434 499 32,000  Level Minneapolis Center
Wed 06:43:08 PM 45.8686 -90.3167 308° West 431 496 32,000 -484 Level Minneapolis Center
Wed 06:44:10 PM 45.9431 -90.4544 308° West 435 501 31,000 -1,742 Descending Minneapolis Center
Wed 06:45:12 PM 46.0147 -90.5900 307° West 429 494 28,400 -2,468 Descending Minneapolis Center
Wed 06:46:14 PM 46.0839 -90.7172 308° West 414 476 25,900 -2,419 Descending Minneapolis Center
Wed 06:47:16 PM 46.1481 -90.8411 307° West 395 455 23,400 -2,661 Descending Minneapolis Center
Wed 06:48:18 PM 46.2217 -90.9825 307° West 372 428 20,400 -2,710 Descending Minneapolis Center
Wed 06:49:20 PM 46.2814 -91.0947 308° West 357 411 17,800 -2,468 Descending Minneapolis Center
Wed 06:50:22 PM 46.3394 -91.2042 308° West 345 397 15,300 -2,419 Descending Minneapolis Center
Wed 06:51:24 PM 46.3964 -91.3069 309° West 332 382 12,800 -2,226 Descending Minneapolis Center
Wed 06:52:26 PM 46.4558 -91.4039 312° West 323 372 10,700 -1,645 Descending Minneapolis Center
Wed 06:53:28 PM 46.5097 -91.4917 312° West 300 345 9,400 -1,500 Descending Minneapolis Center
Wed 06:54:30 PM 46.5650 -91.5919 309° West 272 313 7,600 -1,548 Descending Minneapolis Center
Wed 06:55:32 PM 46.6092 -91.6614 313° West 273 314 6,200 -1,113 Descending Minneapolis Center
Wed 06:56:34 PM 46.6586 -91.7439 311° West 273 314 5,300 -823 Descending Minneapolis Center
Wed 06:57:36 PM 46.7158 -91.8406 311° West 268 308 4,500 -726 Descending Minneapolis Center
Wed 06:58:38 PM 46.7614 -91.9192 310° West 262 302 3,800 -629 Descending Minneapolis Center
Wed 06:59:40 PM 46.8028 -91.9897 311° West 248 285 3,200 -339 Descending Minneapolis Center
Wed 07:00:42 PM 46.8364 -92.0464 311° West 214 246 3,100 -435 Descending Minneapolis Center
Wed 07:01:44 PM 46.8406 -92.1061 276° West 172 198 2,300 -484 Descending Minneapolis Center
Wed 07:02:46 PM 46.8403 -92.1722 270° West 159 183 2,100 -194 Descending Minneapolis Center
Wed 07:04:00 PM 46.8333 -92.1833 306° West  Level FlightAware Approximate
Wed 07:11:00 PM 46.8421 -92.1936 306° West  Level Estimated
Wed 07:12:00 PM 46.8421 -92.1936 306° West  Level Estimated

Login

Don't have an account? Register now (free) for customized features, flight alerts, and more!